Time;durP1;ratioP1;P1;durP2;ratioP2;P2;SDS_P1;SDS_P2;PMS_P1;PMS_P2;Temp;Humidity;BMP_temperature;BMP_pressure;BME280_temperature;BME280_humidity;BME280_pressure;Samples;Min_cycle;Max_cycle;Signal;HPM_P1;HPM_P2
2024/01/15 00:01:22;;;;;;;7.22;5.30;;;;;;;-0.66;59.59;97771.25;5129758;27;20230;-68
2024/01/15 00:03:48;;;;;;;7.97;5.07;;;;;;;-0.64;59.73;97766.84;5129723;28;20092;-68
2024/01/15 00:06:15;;;;;;;8.68;5.57;;;;;;;-0.64;59.41;97764.25;5129497;28;20070;-68
2024/01/15 00:08:43;;;;;;;7.32;5.18;;;;;;;-0.61;59.32;97771.94;5129328;28;20097;-68
2024/01/15 00:11:10;;;;;;;8.45;6.05;;;;;;;-0.60;59.36;97760.63;5129790;28;20102;-68
2024/01/15 00:13:36;;;;;;;8.75;5.20;;;;;;;-0.61;59.29;97759.78;5129532;28;20093;-69
2024/01/15 00:16:03;;;;;;;8.23;5.28;;;;;;;-0.60;59.29;97752.81;5129442;28;20066;-69
2024/01/15 00:18:30;;;;;;;8.05;5.70;;;;;;;-0.63;59.47;97756.38;5129452;28;20055;-68
2024/01/15 00:20:56;;;;;;;7.50;4.70;;;;;;;-0.66;59.44;97753.88;5129373;28;20047;-68
2024/01/15 00:23:23;;;;;;;7.40;4.80;;;;;;;-0.66;59.46;97756.50;5128969;28;20333;-68
2024/01/15 00:25:52;;;;;;;8.07;5.60;;;;;;;-0.87;59.54;97719.09;5128990;28;20043;-68
2024/01/15 00:28:19;;;;;;;8.45;5.88;;;;;;;-0.71;59.64;97746.25;5129224;28;20044;-68
2024/01/15 00:30:45;;;;;;;8.48;5.15;;;;;;;-0.69;59.45;97743.59;5129088;28;20058;-70
2024/01/15 00:33:14;;;;;;;9.85;5.55;;;;;;;-0.69;59.47;97743.59;5129409;28;20039;-66
2024/01/15 00:35:41;;;;;;;10.13;6.28;;;;;;;-0.69;59.68;97743.59;5128781;28;20051;-67
2024/01/15 00:38:08;;;;;;;13.20;7.90;;;;;;;-0.69;59.98;97733.19;5128746;28;20050;-67
2024/01/15 00:40:35;;;;;;;10.95;7.38;;;;;;;-0.70;60.02;97729.72;5129533;28;20235;-67
2024/01/15 00:43:03;;;;;;;12.02;7.13;;;;;;;-0.91;60.22;97696.69;5128690;28;20043;-68
2024/01/15 00:45:30;;;;;;;13.02;7.70;;;;;;;-0.69;60.31;97733.19;5129202;28;20243;-67
2024/01/15 00:47:59;;;;;;;9.95;7.32;;;;;;;-0.88;60.26;97693.97;5129163;28;20044;-67
2024/01/15 00:50:26;;;;;;;11.40;7.28;;;;;;;-0.71;60.63;97732.38;5128497;28;20110;-67
2024/01/15 00:52:52;;;;;;;10.50;8.05;;;;;;;-0.71;60.52;97732.38;5128765;28;20063;-67
2024/01/15 00:55:19;;;;;;;12.98;8.15;;;;;;;-0.72;60.60;97738.50;5128676;28;20046;-68
2024/01/15 00:57:45;;;;;;;12.25;7.22;;;;;;;-0.70;60.23;97728.88;5128398;28;20040;-67
2024/01/15 01:00:15;;;;;;;11.57;8.48;;;;;;;-0.72;60.42;97733.28;5128541;28;20345;-67
2024/01/15 01:02:41;;;;;;;11.20;6.72;;;;;;;-0.70;60.21;97736.69;5128603;28;20174;-67
2024/01/15 01:05:08;;;;;;;8.45;6.95;;;;;;;-0.69;59.87;97726.22;5128295;28;20126;-67
2024/01/15 01:07:35;;;;;;;9.70;6.60;;;;;;;-0.65;59.77;97734.78;5128555;28;20122;-67
2024/01/15 01:10:02;;;;;;;8.13;5.45;;;;;;;-0.64;59.50;97723.47;5128363;28;20050;-67
2024/01/15 01:12:29;;;;;;;8.63;5.25;;;;;;;-0.69;59.42;97715.81;5128383;28;20088;-67
2024/01/15 01:14:56;;;;;;;7.97;5.18;;;;;;;-0.65;59.50;97715.72;5127249;28;20123;-67
2024/01/15 01:17:24;;;;;;;9.15;5.88;;;;;;;-0.64;59.43;97710.44;5129469;28;20096;-69
2024/01/15 01:19:51;;;;;;;7.15;5.20;;;;;;;-0.67;59.27;97707.97;5128219;28;20054;-66
2024/01/15 01:22:18;;;;;;;10.27;5.90;;;;;;;-0.66;59.37;97708.81;5128180;28;20051;-66
2024/01/15 01:24:44;;;;;;;8.38;5.60;;;;;;;-0.68;59.41;97714.91;5127839;28;20358;-66
2024/01/15 01:27:11;;;;;;;7.85;5.50;;;;;;;-0.69;59.23;97705.41;5128091;28;20067;-66
2024/01/15 01:29:38;;;;;;;7.97;5.38;;;;;;;-0.68;59.18;97709.72;5127723;28;20101;-66
2024/01/15 01:32:05;;;;;;;9.07;6.40;;;;;;;-0.69;59.37;97710.63;5128170;28;20131;-66
2024/01/15 01:34:34;;;;;;;9.05;6.22;;;;;;;-0.69;59.70;97712.38;5127689;28;20040;-67
2024/01/15 01:37:01;;;;;;;11.35;6.70;;;;;;;-0.90;59.49;97674.13;5127912;28;20051;-67
2024/01/15 01:39:27;;;;;;;9.77;6.93;;;;;;;-0.69;59.70;97702.81;5126977;28;20066;-68
2024/01/15 01:41:54;;;;;;;8.38;5.95;;;;;;;-0.69;59.68;97701.97;5127509;28;20055;-67
2024/01/15 01:44:21;;;;;;;9.13;6.53;;;;;;;-0.72;59.71;97702.06;5127750;28;20051;-67
2024/01/15 01:46:48;;;;;;;11.00;7.07;;;;;;;-0.74;59.92;97699.53;5127530;28;20043;-67
2024/01/15 01:49:15;;;;;;;10.18;7.25;;;;;;;-0.74;59.81;97694.31;5127630;28;20088;-67
2024/01/15 01:51:43;;;;;;;12.35;7.43;;;;;;;-0.75;59.73;97679.63;5127498;28;20047;-67
2024/01/15 01:54:12;;;;;;;10.90;6.50;;;;;;;-0.70;59.25;97666.44;5127584;28;20075;-68
2024/01/15 01:56:39;;;;;;;11.63;7.40;;;;;;;-0.69;58.93;97670.75;5127508;28;20118;-67
2024/01/15 01:59:08;;;;;;;12.85;8.30;;;;;;;-0.69;59.00;97665.53;5127469;28;20212;-67
2024/01/15 02:01:35;;;;;;;14.77;7.82;;;;;;;-0.70;58.97;97653.44;5127103;28;20046;-67
2024/01/15 02:04:02;;;;;;;11.80;7.43;;;;;;;-0.74;58.93;97657.91;5127001;28;20085;-67
2024/01/15 02:06:29;;;;;;;11.40;7.35;;;;;;;-0.73;58.82;97640.53;5126905;28;20061;-67
2024/01/15 02:08:58;;;;;;;12.85;8.63;;;;;;;-0.80;58.71;97650.34;5127236;28;20055;-67
2024/01/15 02:11:24;;;;;;;12.23;8.40;;;;;;;-0.77;58.93;97639.81;5126414;28;20196;-67
2024/01/15 02:13:51;;;;;;;12.85;8.35;;;;;;;-0.78;58.77;97637.28;5126080;28;20058;-67
2024/01/15 02:16:18;;;;;;;15.18;9.05;;;;;;;-0.79;58.32;97643.38;5127095;28;20043;-67
2024/01/15 02:18:46;;;;;;;13.52;8.93;;;;;;;-0.75;58.41;97647.56;5127384;27;20119;-67
2024/01/15 02:21:13;;;;;;;14.95;9.38;;;;;;;-0.77;58.46;97641.56;5127237;28;20104;-67
2024/01/15 02:23:41;;;;;;;13.13;8.70;;;;;;;-0.82;58.28;97643.50;5126979;28;20043;-67
2024/01/15 02:26:09;;;;;;;14.63;9.05;;;;;;;-0.84;58.29;97661.75;5126900;28;20117;-67
2024/01/15 02:28:35;;;;;;;17.00;8.93;;;;;;;-0.84;58.08;97656.56;5126873;28;20059;-67
2024/01/15 02:31:02;;;;;;;14.75;9.30;;;;;;;-0.85;57.76;97644.44;5126762;28;20061;-67
2024/01/15 02:33:29;;;;;;;14.05;8.68;;;;;;;-0.85;57.64;97635.78;5126800;28;20043;-67
2024/01/15 02:35:55;;;;;;;14.80;8.68;;;;;;;-0.85;57.69;97643.59;5126452;28;20051;-67
2024/01/15 02:38:22;;;;;;;11.93;8.25;;;;;;;-0.84;58.03;97640.09;5126750;28;20311;-67
2024/01/15 02:40:50;;;;;;;12.57;9.27;;;;;;;-1.46;57.77;97549.59;5126141;28;20196;-67
2024/01/15 02:43:18;;;;;;;14.40;9.38;;;;;;;-0.83;57.88;97641.78;5126668;28;20046;-67
2024/01/15 02:45:45;;;;;;;14.70;8.85;;;;;;;-0.80;57.78;97639.94;5126657;28;20093;-67
2024/01/15 02:48:12;;;;;;;13.30;9.30;;;;;;;-0.78;57.63;97647.66;5127124;28;20176;-67
2024/01/15 02:50:38;;;;;;;12.65;8.70;;;;;;;-0.76;57.22;97640.66;5126543;28;20062;-67
2024/01/15 02:53:06;;;;;;;13.95;9.85;;;;;;;-0.77;57.55;97633.75;5126270;28;20066;-67
2024/01/15 02:55:32;;;;;;;15.20;9.50;;;;;;;-0.75;57.29;97640.59;5126569;28;20043;-67
2024/01/15 02:58:00;;;;;;;14.50;8.77;;;;;;;-0.73;57.38;97622.34;5126433;28;20051;-68
2024/01/15 03:00:27;;;;;;;15.55;9.82;;;;;;;-0.73;57.45;97636.19;5126514;28;20047;-67
2024/01/15 03:02:55;;;;;;;11.27;8.10;;;;;;;-0.70;57.15;97637.81;5126145;28;20035;-67
2024/01/15 03:05:22;;;;;;;14.52;8.95;;;;;;;-0.71;57.41;97652.59;5125037;28;20324;-67
2024/01/15 03:07:48;;;;;;;12.73;8.63;;;;;;;-0.70;57.13;97658.66;5126455;28;20123;-67
2024/01/15 03:10:15;;;;;;;14.43;9.00;;;;;;;-0.69;57.25;97663.78;5126106;28;20069;-67
2024/01/15 03:12:42;;;;;;;14.27;8.65;;;;;;;-0.88;57.39;97618.56;5126406;28;20176;-67
2024/01/15 03:15:10;;;;;;;15.07;9.50;;;;;;;-0.67;57.22;97671.53;5126436;28;20055;-67
2024/01/15 03:17:37;;;;;;;17.23;10.80;;;;;;;-0.63;57.21;97667.06;5126447;28;20043;-67
2024/01/15 03:20:04;;;;;;;13.95;9.30;;;;;;;-0.66;57.28;97675.84;5126498;28;20047;-67
2024/01/15 03:22:31;;;;;;;15.45;9.68;;;;;;;-0.64;57.37;97673.19;5128708;28;20089;-67
2024/01/15 03:24:57;;;;;;;15.45;10.02;;;;;;;-0.64;57.42;97661.00;5130257;28;20044;-68
2024/01/15 03:27:23;;;;;;;16.33;9.82;;;;;;;-0.61;57.33;97679.13;5130667;28;20052;-68
2024/01/15 03:29:49;;;;;;;16.92;9.73;;;;;;;-0.61;57.56;97699.94;5130635;28;20234;-68
2024/01/15 03:32:17;;;;;;;18.08;11.52;;;;;;;-0.58;57.56;97694.63;5130279;28;20043;-67
2024/01/15 03:34:44;;;;;;;13.50;10.07;;;;;;;-0.59;57.49;97702.47;5130282;28;20051;-67
2024/01/15 03:37:11;;;;;;;15.55;11.20;;;;;;;-0.59;57.39;97692.91;5130259;28;20043;-67
2024/01/15 03:39:37;;;;;;;14.40;9.02;;;;;;;-0.57;57.46;97695.47;5130232;28;20054;-67
2024/01/15 03:42:04;;;;;;;16.05;10.25;;;;;;;-0.58;57.77;97693.78;5130334;28;20349;-67
2024/01/15 03:44:31;;;;;;;16.92;10.38;;;;;;;-0.57;57.84;97696.31;5130084;28;20047;-68
2024/01/15 03:46:57;;;;;;;18.15;10.55;;;;;;;-0.56;57.89;97704.97;5129750;28;20039;-67
2024/01/15 03:49:25;;;;;;;17.25;11.20;;;;;;;-0.58;57.97;97702.41;5130294;28;20052;-68
2024/01/15 03:51:52;;;;;;;19.35;11.73;;;;;;;-0.61;58.12;97696.47;5129621;28;20288;-68
2024/01/15 03:54:19;;;;;;;18.65;12.15;;;;;;;-0.65;58.49;97708.75;5129909;28;20039;-67
2024/01/15 03:56:45;;;;;;;19.20;11.38;;;;;;;-0.59;58.47;97689.47;5129586;28;20062;-68
2024/01/15 03:59:12;;;;;;;19.20;11.98;;;;;;;-0.62;58.64;97693.03;5129515;28;20183;-68
2024/01/15 04:01:38;;;;;;;18.77;11.98;;;;;;;-0.62;58.65;97697.38;5129832;28;20196;-68
2024/01/15 04:04:05;;;;;;;19.77;11.38;;;;;;;-0.66;58.65;97681.03;5129789;28;20104;-68
2024/01/15 04:06:33;;;;;;;16.48;10.15;;;;;;;-0.65;58.68;97661.91;5129275;28;20055;-68
2024/01/15 04:09:00;;;;;;;16.83;11.60;;;;;;;-0.64;58.54;97652.38;5129620;28;20044;-67
2024/01/15 04:11:27;;;;;;;19.83;11.57;;;;;;;-0.65;58.69;97664.53;5129435;28;20073;-67
2024/01/15 04:13:53;;;;;;;21.10;12.80;;;;;;;-0.87;58.59;97612.44;5129191;28;20043;-68
2024/01/15 04:16:20;;;;;;;18.10;11.23;;;;;;;-0.65;58.66;97637.66;5128897;28;20074;-68
2024/01/15 04:18:46;;;;;;;18.27;11.80;;;;;;;-0.65;58.92;97638.50;5129681;28;20052;-68
2024/01/15 04:21:13;;;;;;;18.67;11.32;;;;;;;-0.64;58.78;97616.78;5129043;28;20039;-68
2024/01/15 04:23:41;;;;;;;15.32;10.43;;;;;;;-0.62;59.08;97624.53;5129051;28;20039;-67
2024/01/15 04:26:08;;;;;;;16.17;10.48;;;;;;;-0.59;59.24;97616.63;5129194;28;20051;-68
2024/01/15 04:28:34;;;;;;;15.02;9.65;;;;;;;-0.59;59.08;97625.25;5129494;28;20102;-68
2024/01/15 04:31:01;;;;;;;15.93;9.80;;;;;;;-0.58;59.27;97619.16;5129031;28;20051;-68
2024/01/15 04:33:28;;;;;;;14.13;8.73;;;;;;;-0.55;59.17;97619.03;5128301;28;20056;-68
2024/01/15 04:35:54;;;;;;;15.55;10.20;;;;;;;-0.55;59.36;97620.78;5129358;28;20039;-67
2024/01/15 04:38:21;;;;;;;13.68;10.45;;;;;;;-0.58;59.42;97633.91;5128688;28;20303;-67
2024/01/15 04:40:49;;;;;;;12.80;9.55;;;;;;;-0.56;59.59;97634.72;5128935;28;20051;-67
2024/01/15 04:43:16;;;;;;;15.63;9.73;;;;;;;-0.54;59.50;97649.34;5128839;28;20192;-67
2024/01/15 04:45:42;;;;;;;15.40;10.25;;;;;;;-0.53;59.55;97650.22;5128535;28;20078;-67
2024/01/15 04:48:09;;;;;;;17.80;11.52;;;;;;;-0.56;59.71;97634.72;5128425;28;20040;-67
2024/01/15 04:50:35;;;;;;;15.90;10.80;;;;;;;-0.60;60.01;97643.53;5128756;28;20051;-68
2024/01/15 04:53:02;;;;;;;16.83;10.48;;;;;;;-0.83;59.97;97620.97;5128337;28;20048;-68
2024/01/15 04:55:29;;;;;;;15.48;9.88;;;;;;;-0.64;59.88;97636.75;5128383;28;20051;-68
2024/01/15 04:57:56;;;;;;;18.42;11.15;;;;;;;-0.69;60.16;97683.75;5128295;28;20055;-67
2024/01/15 05:00:23;;;;;;;17.63;10.82;;;;;;;-0.74;60.25;97657.91;5128579;28;20096;-68
2024/01/15 05:02:50;;;;;;;16.60;12.68;;;;;;;-0.72;60.25;97670.84;5128533;28;20047;-68
2024/01/15 05:05:16;;;;;;;15.48;11.02;;;;;;;-0.71;60.14;97669.94;5128022;28;20271;-68
2024/01/15 05:07:43;;;;;;;19.00;12.00;;;;;;;-0.76;60.18;97680.53;5128171;28;20318;-68
2024/01/15 05:10:10;;;;;;;20.45;13.60;;;;;;;-0.76;60.32;97695.28;5128103;28;20047;-68
2024/01/15 05:12:37;;;;;;;17.85;11.85;;;;;;;-0.76;60.09;97692.69;5128327;27;20039;-68
2024/01/15 05:15:05;;;;;;;15.20;10.98;;;;;;;-0.81;60.12;97707.59;5128335;28;20096;-68
2024/01/15 05:17:32;;;;;;;19.63;13.23;;;;;;;-0.83;60.00;97699.88;5128565;28;20341;-68
2024/01/15 05:19:59;;;;;;;17.17;11.70;;;;;;;-0.83;59.91;97686.00;5128236;28;20039;-68
2024/01/15 05:22:26;;;;;;;17.23;11.98;;;;;;;-1.06;60.00;97674.66;5128373;28;20047;-68
2024/01/15 05:24:52;;;;;;;15.80;12.02;;;;;;;-0.86;59.82;97699.97;5127812;28;20173;-68
2024/01/15 05:27:19;;;;;;;17.92;11.35;;;;;;;-1.07;59.67;97659.94;5128050;28;20092;-69
2024/01/15 05:29:46;;;;;;;17.30;12.10;;;;;;;-0.84;59.61;97695.56;5126928;28;20274;-68
2024/01/15 05:32:14;;;;;;;16.20;10.65;;;;;;;-0.87;59.65;97700.03;5128149;28;20044;-68
2024/01/15 05:34:41;;;;;;;15.60;10.05;;;;;;;-0.83;59.32;97712.03;5127962;28;20043;-68
2024/01/15 05:37:07;;;;;;;14.50;11.05;;;;;;;-0.85;59.48;97704.28;5128089;28;20051;-68
2024/01/15 05:39:34;;;;;;;18.27;11.52;;;;;;;-0.83;59.45;97705.06;5127497;28;20054;-68
2024/01/15 05:42:01;;;;;;;14.30;10.27;;;;;;;-1.00;59.19;97673.59;5127735;28;20039;-68
2024/01/15 05:44:27;;;;;;;17.05;11.95;;;;;;;-0.82;59.27;97724.97;5127114;28;20051;-68
2024/01/15 05:46:54;;;;;;;18.25;11.90;;;;;;;-0.86;59.13;97704.31;5126535;28;20051;-68
2024/01/15 05:49:22;;;;;;;18.05;10.98;;;;;;;-0.92;59.36;97705.38;5127600;28;20043;-68
2024/01/15 05:51:49;;;;;;;17.23;13.02;;;;;;;-0.88;59.15;97716.53;5127457;28;20043;-68
2024/01/15 05:54:15;;;;;;;17.45;11.13;;;;;;;-1.05;59.33;97683.28;5127209;28;20044;-67
2024/01/15 05:56:42;;;;;;;13.40;9.50;;;;;;;-0.87;59.38;97734.69;5127418;28;20043;-68
2024/01/15 05:59:09;;;;;;;17.90;10.70;;;;;;;-0.89;59.24;97731.28;5126194;28;20043;-68
2024/01/15 06:01:35;;;;;;;14.02;9.65;;;;;;;-0.89;59.21;97733.88;5127518;28;20096;-68
2024/01/15 06:04:02;;;;;;;13.88;10.05;;;;;;;-0.88;59.43;97742.53;5127351;28;20043;-68
2024/01/15 06:06:30;;;;;;;12.55;9.30;;;;;;;-0.85;59.26;97742.44;5127020;28;20212;-68
2024/01/15 06:08:59;;;;;;;13.38;8.70;;;;;;;-0.91;59.74;97737.44;5127545;28;20296;-68
2024/01/15 06:11:30;;;;;;;14.23;8.50;;;;;;;-1.13;59.83;97700.91;5126796;28;20127;-68
2024/01/15 06:13:57;;;;;;;13.25;9.50;;;;;;;-0.85;59.78;97729.44;5127012;28;20093;-68
2024/01/15 06:16:24;;;;;;;12.68;7.97;;;;;;;-0.90;60.04;97736.53;5127311;28;20061;-68
2024/01/15 06:18:51;;;;;;;13.18;8.75;;;;;;;-0.90;60.11;97711.38;5127013;28;20043;-68
2024/01/15 06:21:18;;;;;;;13.30;9.95;;;;;;;-0.89;60.28;97735.66;5126935;28;20093;-68
2024/01/15 06:23:46;;;;;;;13.18;8.52;;;;;;;-0.88;60.37;97745.16;5126954;28;20035;-68
2024/01/15 06:26:13;;;;;;;13.32;9.13;;;;;;;-0.86;60.12;97728.59;5126893;28;20054;-68
2024/01/15 06:28:40;;;;;;;11.73;8.88;;;;;;;-1.67;60.29;97614.41;5126898;28;20048;-68
2024/01/15 06:31:07;;;;;;;16.10;11.07;;;;;;;-0.85;60.27;97724.22;5126382;28;20039;-68
2024/01/15 06:33:34;;;;;;;14.35;8.40;;;;;;;-0.90;60.50;97740.00;5126909;28;20053;-68
2024/01/15 06:36:00;;;;;;;14.02;8.40;;;;;;;-0.87;60.53;97726.03;5126435;28;20092;-68
2024/01/15 06:38:27;;;;;;;13.10;9.40;;;;;;;-0.89;60.70;97736.50;5126713;28;20039;-68
2024/01/15 06:40:55;;;;;;;12.48;8.13;;;;;;;-0.92;60.91;97746.16;5126632;28;20043;-68
2024/01/15 06:43:21;;;;;;;14.55;10.43;;;;;;;-0.94;60.74;97742.75;5126617;28;20047;-68
2024/01/15 06:45:48;;;;;;;12.13;8.95;;;;;;;-0.92;60.56;97757.41;5126646;28;20092;-68
2024/01/15 06:48:16;;;;;;;11.90;8.57;;;;;;;-1.14;60.68;97710.47;5126237;28;20040;-68
2024/01/15 06:50:43;;;;;;;16.63;9.20;;;;;;;-0.93;60.92;97757.47;5126466;28;20067;-68
2024/01/15 06:53:09;;;;;;;14.68;10.88;;;;;;;-0.97;61.04;97761.91;5126402;28;20066;-68
2024/01/15 06:55:36;;;;;;;12.95;8.95;;;;;;;-0.95;61.02;97757.50;5126201;28;20088;-68
2024/01/15 06:58:04;;;;;;;14.00;9.02;;;;;;;-1.01;61.04;97755.94;5125465;28;20204;-67
2024/01/15 07:00:31;;;;;;;15.57;9.73;;;;;;;-1.02;61.01;97769.84;5125839;28;20041;-68
2024/01/15 07:02:57;;;;;;;12.73;8.43;;;;;;;-0.99;60.79;97753.31;5126579;28;20093;-68
2024/01/15 07:05:24;;;;;;;13.02;8.52;;;;;;;-0.99;60.97;97766.31;5125951;28;20055;-68
2024/01/15 07:07:53;;;;;;;11.15;8.43;;;;;;;-0.97;60.60;97756.72;5125371;28;20476;-68
2024/01/15 07:10:20;;;;;;;11.57;7.63;;;;;;;-0.96;60.36;97765.38;5126218;28;20051;-68
2024/01/15 07:12:46;;;;;;;11.63;8.70;;;;;;;-0.98;60.50;97760.22;5126140;28;20044;-68
2024/01/15 07:15:16;;;;;;;11.98;8.10;;;;;;;-2.13;60.30;97586.50;5126085;28;20211;-68
2024/01/15 07:17:42;;;;;;;12.45;8.85;;;;;;;-1.12;60.14;97726.00;5124966;28;20085;-68
2024/01/15 07:20:10;;;;;;;17.23;9.95;;;;;;;-0.93;60.03;97766.13;5126096;28;20043;-68
2024/01/15 07:22:37;;;;;;;14.05;9.18;;;;;;;-0.93;59.79;97775.66;5126392;28;20035;-68
2024/01/15 07:25:06;;;;;;;11.02;7.30;;;;;;;-0.92;59.87;97769.56;5125809;28;20246;-68
2024/01/15 07:27:33;;;;;;;11.82;8.35;;;;;;;-0.89;59.71;97769.44;5126114;28;20047;-68
2024/01/15 07:29:59;;;;;;;9.82;8.02;;;;;;;-0.86;59.66;97771.94;5126331;28;20280;-68
2024/01/15 07:32:28;;;;;;;11.95;8.13;;;;;;;-0.88;59.74;97778.97;5125736;28;20054;-68
2024/01/15 07:34:54;;;;;;;14.85;9.00;;;;;;;-0.85;59.90;97773.66;5125754;28;20043;-68
2024/01/15 07:37:21;;;;;;;12.70;8.30;;;;;;;-0.85;59.79;97769.28;5125686;28;20089;-68
2024/01/15 07:39:47;;;;;;;15.07;7.82;;;;;;;-0.83;59.93;97787.44;5126240;28;20048;-69
2024/01/15 07:42:14;;;;;;;12.07;8.45;;;;;;;-0.83;59.61;97769.25;5125610;28;20035;-68
2024/01/15 07:44:41;;;;;;;14.55;9.88;;;;;;;-0.81;59.87;97776.09;5125666;28;20296;-68
2024/01/15 07:47:08;;;;;;;13.07;8.35;;;;;;;-0.77;59.71;97782.88;5125843;28;20096;-68
2024/01/15 07:49:36;;;;;;;13.70;9.57;;;;;;;-0.76;59.70;97791.53;5125749;28;20039;-68
2024/01/15 07:52:04;;;;;;;12.75;8.95;;;;;;;-0.76;59.73;97800.19;5125747;28;20051;-68
2024/01/15 07:54:31;;;;;;;12.65;8.30;;;;;;;-0.74;59.63;97790.59;5125501;28;20047;-68
2024/01/15 07:56:59;;;;;;;13.70;8.15;;;;;;;-0.71;59.66;97787.88;5125776;28;20246;-69
2024/01/15 07:59:25;;;;;;;14.57;9.48;;;;;;;-0.66;59.72;97781.66;5125269;28;20047;-68
2024/01/15 08:01:53;;;;;;;12.57;8.95;;;;;;;-1.41;59.72;97652.47;5125755;28;20054;-68
2024/01/15 08:04:21;;;;;;;11.60;8.25;;;;;;;-0.66;59.77;97786.88;5125515;28;20135;-68
2024/01/15 08:06:49;;;;;;;11.50;8.43;;;;;;;-0.65;59.80;97785.97;5125728;28;20116;-68
2024/01/15 08:09:16;;;;;;;13.55;8.55;;;;;;;-0.61;59.67;97780.59;5127183;28;20043;-69
2024/01/15 08:11:43;;;;;;;15.05;9.85;;;;;;;-0.61;59.85;97770.19;5129501;28;20039;-68
2024/01/15 08:14:11;;;;;;;11.95;8.90;;;;;;;-0.56;59.76;97777.81;5129227;28;20204;-68
2024/01/15 08:16:38;;;;;;;11.77;8.43;;;;;;;-0.57;59.70;97771.78;5129099;28;20047;-68
2024/01/15 08:19:05;;;;;;;11.65;8.50;;;;;;;-0.53;59.68;97760.34;5129144;28;20039;-68
2024/01/15 08:21:31;;;;;;;11.75;7.82;;;;;;;-0.51;59.65;97761.16;5129055;28;20058;-68
2024/01/15 08:24:00;;;;;;;13.35;9.13;;;;;;;-0.50;59.45;97769.81;5128933;28;20324;-68
2024/01/15 08:26:27;;;;;;;16.70;9.45;;;;;;;-0.49;59.71;97784.50;5129505;28;20169;-68
2024/01/15 08:28:54;;;;;;;14.57;8.48;;;;;;;-0.71;59.59;97740.19;5129428;28;20093;-68
2024/01/15 08:31:20;;;;;;;13.13;7.78;;;;;;;-0.45;59.44;97773.94;5129228;28;20047;-68
2024/01/15 08:33:47;;;;;;;12.82;8.20;;;;;;;-0.47;59.69;97769.69;5128978;28;20188;-68
2024/01/15 08:36:14;;;;;;;11.88;7.95;;;;;;;-0.43;59.64;97769.53;5129345;28;20093;-68
2024/01/15 08:38:41;;;;;;;11.60;8.25;;;;;;;-0.44;59.41;97743.56;5128987;28;20040;-68
2024/01/15 08:41:09;;;;;;;10.52;7.25;;;;;;;-0.36;59.34;97754.53;5128956;28;20051;-68
2024/01/15 08:43:35;;;;;;;11.55;7.55;;;;;;;-0.37;59.25;97756.28;5129006;28;20047;-68
2024/01/15 08:46:02;;;;;;;10.85;7.53;;;;;;;-0.28;59.09;97742.09;5128571;28;20043;-68
2024/01/15 08:48:29;;;;;;;8.75;7.00;;;;;;;-0.43;59.03;97716.63;5129111;28;20043;-68
2024/01/15 08:50:56;;;;;;;11.02;7.32;;;;;;;-0.15;59.16;97753.72;5128516;28;20096;-68
2024/01/15 08:53:23;;;;;;;13.02;7.28;;;;;;;-0.06;59.00;97757.75;5128371;28;20043;-68
2024/01/15 08:55:50;;;;;;;10.95;7.40;;;;;;;0.06;59.03;97762.50;5128726;28;20055;-68
2024/01/15 08:58:18;;;;;;;11.45;7.85;;;;;;;0.19;58.72;97761.09;5128336;28;20332;-68
2024/01/15 09:00:45;;;;;;;9.18;7.20;;;;;;;0.35;58.36;97761.34;5128554;28;20063;-68
2024/01/15 09:03:12;;;;;;;10.05;6.97;;;;;;;0.41;57.80;97773.28;5128272;28;20031;-68
2024/01/15 09:05:38;;;;;;;11.68;6.90;;;;;;;0.56;57.69;97776.13;5128039;28;20112;-68
2024/01/15 09:08:05;;;;;;;9.32;6.20;;;;;;;0.59;57.63;97773.41;5128450;28;20052;-68
2024/01/15 09:10:32;;;;;;;12.90;7.63;;;;;;;0.60;57.26;97776.88;5128379;28;20276;-69
2024/01/15 09:13:00;;;;;;;8.93;6.10;;;;;;;0.57;57.08;97767.41;5128199;28;20054;-68
2024/01/15 09:15:28;;;;;;;9.90;6.20;;;;;;;0.38;57.24;97739.53;5128555;28;20234;-68
2024/01/15 09:17:57;;;;;;;9.52;6.80;;;;;;;0.61;57.05;97753.34;5127108;28;20067;-68
2024/01/15 09:20:23;;;;;;;8.32;5.93;;;;;;;-0.11;57.09;97673.75;5127950;28;20118;-68
2024/01/15 09:22:50;;;;;;;9.50;5.93;;;;;;;0.61;57.24;97775.94;5128465;28;20331;-69
2024/01/15 09:25:17;;;;;;;10.15;6.00;;;;;;;0.53;57.44;97791.91;5127821;28;20050;-68
2024/01/15 09:27:44;;;;;;;10.00;6.88;;;;;;;0.51;57.44;97782.44;5128038;28;20089;-68
2024/01/15 09:30:11;;;;;;;9.35;6.85;;;;;;;0.46;57.47;97766.13;5127983;28;20051;-68
2024/01/15 09:32:39;;;;;;;8.65;5.97;;;;;;;0.47;57.85;97765.22;5127615;28;20330;-68
2024/01/15 09:35:07;;;;;;;8.25;6.20;;;;;;;0.45;57.81;97770.50;5127890;28;20052;-68
2024/01/15 09:37:34;;;;;;;9.48;6.30;;;;;;;0.46;58.01;97758.31;5127880;28;20067;-68
2024/01/15 09:40:00;;;;;;;15.25;7.88;;;;;;;0.45;58.09;97746.19;5127720;28;20085;-68
2024/01/15 09:42:27;;;;;;;9.77;6.30;;;;;;;0.49;58.28;97758.19;5127757;28;20054;-68
2024/01/15 09:44:54;;;;;;;9.30;6.35;;;;;;;0.53;58.29;97771.06;5127759;28;20062;-68
2024/01/15 09:47:22;;;;;;;9.27;6.50;;;;;;;0.50;58.29;97771.16;5127560;28;20043;-68
2024/01/15 09:49:50;;;;;;;8.70;6.47;;;;;;;0.53;58.34;97744.97;5127575;28;20106;-69
2024/01/15 09:52:20;;;;;;;9.43;6.22;;;;;;;0.55;58.49;97761.41;5126406;28;20341;-68
2024/01/15 09:54:47;;;;;;;9.63;6.68;;;;;;;0.56;58.62;97754.44;5127787;28;20097;-68
2024/01/15 09:57:14;;;;;;;10.13;7.25;;;;;;;0.60;58.48;97750.78;5127479;28;20050;-69
2024/01/15 09:59:43;;;;;;;8.90;6.15;;;;;;;0.41;58.49;97724.63;5127411;28;20051;-69
2024/01/15 10:02:17;;;;;;;8.63;6.00;;;;;;;0.67;59.08;97751.41;5127140;28;20074;-69
2024/01/15 10:04:44;;;;;;;8.50;6.75;;;;;;;0.57;59.29;97727.47;5126936;28;20331;-69
2024/01/15 10:07:16;;;;;;;10.27;6.95;;;;;;;0.73;58.91;97744.16;5127262;28;20215;-69
2024/01/15 10:09:43;;;;;;;9.07;6.70;;;;;;;0.78;58.74;97710.06;5127221;28;20102;-69
2024/01/15 10:12:11;;;;;;;8.05;6.18;;;;;;;0.84;58.71;97717.63;5126874;28;20044;-68
2024/01/15 10:14:37;;;;;;;8.40;5.75;;;;;;;0.84;58.89;97709.81;5125986;28;20051;-69
2024/01/15 10:17:13;;;;;;;9.20;7.70;;;;;;;0.39;58.86;97618.75;5127058;28;20200;-69
2024/01/15 10:19:41;;;;;;;8.65;6.03;;;;;;;1.12;58.58;97709.47;5127031;28;20047;-69
2024/01/15 10:22:08;;;;;;;8.57;6.90;;;;;;;1.23;58.14;97710.72;5126647;28;20114;-69
2024/01/15 10:24:37;;;;;;;9.07;5.95;;;;;;;1.25;57.93;97718.47;5126655;28;20300;-69
2024/01/15 10:27:07;;;;;;;8.30;5.70;;;;;;;1.26;57.62;97709.72;5126992;28;20067;-69
2024/01/15 10:29:34;;;;;;;7.68;5.50;;;;;;;1.26;57.73;97679.25;5126893;28;20173;-69
2024/01/15 10:32:02;;;;;;;10.35;5.80;;;;;;;1.32;57.53;97709.47;5126295;28;20054;-69
2024/01/15 10:34:29;;;;;;;8.65;5.57;;;;;;;1.34;57.37;97689.34;5126449;28;20168;-69
2024/01/15 10:36:56;;;;;;;7.60;5.38;;;;;;;1.40;57.30;97694.31;5126458;28;20039;-69
2024/01/15 10:39:23;;;;;;;7.03;5.18;;;;;;;1.44;57.22;97681.97;5126568;28;20036;-70
2024/01/15 10:41:51;;;;;;;9.27;5.85;;;;;;;1.52;57.14;97685.06;5126241;28;20066;-69
2024/01/15 10:44:19;;;;;;;7.68;5.65;;;;;;;1.39;56.69;97637.78;5126552;28;20081;-70
2024/01/15 10:46:47;;;;;;;7.50;5.40;;;;;;;1.70;56.74;97701.69;5126542;28;20084;-69
2024/01/15 10:49:13;;;;;;;7.32;5.85;;;;;;;1.73;56.43;97675.44;5126248;28;20070;-70
2024/01/15 10:51:42;;;;;;;7.47;5.10;;;;;;;1.83;56.29;97680.16;5126371;28;20106;-69
2024/01/15 10:54:11;;;;;;;6.55;5.07;;;;;;;1.97;56.21;97665.63;5126220;28;20044;-69
2024/01/15 10:56:38;;;;;;;8.00;4.88;;;;;;;2.07;55.78;97679.94;5126600;28;20058;-70
2024/01/15 10:59:08;;;;;;;6.35;4.97;;;;;;;2.19;55.55;97687.19;5126405;28;20044;-69
2024/01/15 11:01:35;;;;;;;7.82;5.85;;;;;;;2.30;54.87;97674.44;5126253;28;20078;-70
2024/01/15 11:04:02;;;;;;;6.93;5.30;;;;;;;2.29;54.50;97671.91;5126290;28;20063;-70
2024/01/15 11:06:41;;;;;;;7.30;5.20;;;;;;;2.48;54.62;97684.00;5125872;28;20246;-70
2024/01/15 11:09:08;;;;;;;7.55;5.65;;;;;;;2.62;54.29;97679.88;5126198;28;20041;-70
2024/01/15 11:11:37;;;;;;;6.75;5.15;;;;;;;2.64;53.73;97657.94;5126192;28;20098;-70
2024/01/15 11:14:03;;;;;;;7.40;5.10;;;;;;;2.70;53.69;97677.72;5126161;28;20115;-70
2024/01/15 11:16:56;;;;;;;6.82;4.97;;;;;;;2.75;53.84;97663.47;5126247;28;20040;-70
2024/01/15 11:19:22;;;;;;;6.80;5.47;;;;;;;2.83;53.91;97655.25;5125957;28;20043;-69
2024/01/15 11:21:49;;;;;;;7.72;5.07;;;;;;;2.85;53.57;97664.69;5125824;28;20047;-70
2024/01/15 11:24:40;;;;;;;7.22;4.97;;;;;;;2.99;53.62;97657.91;5125859;28;20088;-69
2024/01/15 11:27:08;;;;;;;7.18;4.88;;;;;;;3.05;53.51;97673.31;5125768;28;20043;-69